Scranton, North Dakota
Current Conditions -  °F | °C
As of 8:53 AM on Friday 21 Nov 2014 (Local Time) from KHEI Reporting Station
Clear Clear  
Wind Chill: 25°   Ceiling: Unl
Heat Index: 33°   Visibility: 10mi
Dew Point: 24°   Wind: 10mph
Humidity: 70%   Direction: 260°W
Pressure: 29.79"   Gusts: NA
Location:  46.15°N, 103.14°W
Report Text: KHEI 211553Z AUTO 26009KT 10SM CLR 01/M04 A2979 RMK AO2 SLP117 T00061044
Loading
Personal Weather Stations






























Interactive Weather Map New forecast layout! Learn more

10-Day Weather Forecast

Advertisements
Track Severe Weather on mobile